createdAt,value
2022-10-23T00:01:37.238Z,1.10
2022-10-23T00:04:11.570Z,2.72
2022-10-23T00:06:38.196Z,1.58
2022-10-23T00:09:06.767Z,2.08
2022-10-23T00:11:34.821Z,0.60
2022-10-23T00:14:04.527Z,1.13
2022-10-23T00:16:31.284Z,1.10
2022-10-23T00:18:57.755Z,1.00
2022-10-23T00:21:24.841Z,0.68
2022-10-23T00:23:51.712Z,1.30
2022-10-23T00:26:18.332Z,1.95
2022-10-23T00:28:48.135Z,0.43
2022-10-23T00:31:15.577Z,0.88
2022-10-23T00:33:43.436Z,0.60
2022-10-23T00:36:12.752Z,1.05
2022-10-23T00:38:40.305Z,0.57
2022-10-23T00:41:09.621Z,0.82
2022-10-23T00:44:08.988Z,1.42
2022-10-23T00:46:37.276Z,1.00
2022-10-23T00:49:05.860Z,1.08
2022-10-23T00:51:43.663Z,1.10
2022-10-23T00:54:23.417Z,1.15
2022-10-23T00:56:52.616Z,0.50
2022-10-23T00:59:19.075Z,1.15
2022-10-23T01:01:45.817Z,0.73
2022-10-23T01:04:12.504Z,2.63
2022-10-23T01:06:54.024Z,0.88
2022-10-23T01:09:36.960Z,3.13
2022-10-23T01:12:14.960Z,1.00
2022-10-23T01:15:05.254Z,0.57
2022-10-23T01:17:51.301Z,0.90
2022-10-23T01:20:32.286Z,1.30
2022-10-23T01:23:16.791Z,0.68
2022-10-23T01:26:11.275Z,1.45
2022-10-23T01:28:52.053Z,0.57
2022-10-23T01:32:04.795Z,0.75
2022-10-23T01:34:56.403Z,0.88
2022-10-23T01:37:44.681Z,0.75
2022-10-23T01:40:23.526Z,0.95
2022-10-23T01:42:54.930Z,0.50
2022-10-23T01:45:32.773Z,0.47
2022-10-23T01:48:01.561Z,0.55
2022-10-23T01:50:30.228Z,0.40
2022-10-23T01:52:57.147Z,0.47
2022-10-23T01:55:24.868Z,1.10
2022-10-23T01:57:53.435Z,0.52
2022-10-23T02:00:20.711Z,0.80
2022-10-23T02:02:48.972Z,0.82
2022-10-23T02:05:25.769Z,0.57
2022-10-23T02:07:52.946Z,0.70
2022-10-23T02:10:20.483Z,0.75
2022-10-23T02:12:49.676Z,0.63
2022-10-23T02:15:40.569Z,3.20
2022-10-23T02:18:27.674Z,0.85
2022-10-23T02:21:18.083Z,0.65
2022-10-23T02:23:56.171Z,0.80
2022-10-23T02:26:36.695Z,0.47
2022-10-23T02:29:10.945Z,0.52
2022-10-23T02:31:37.569Z,2.15
2022-10-23T02:34:04.232Z,0.40
2022-10-23T02:36:30.725Z,0.70
2022-10-23T02:38:57.424Z,0.70
2022-10-23T02:41:40.351Z,0.95
2022-10-23T02:44:13.709Z,0.28
2022-10-23T02:46:43.083Z,0.70
2022-10-23T02:49:31.529Z,0.45
2022-10-23T02:52:23.304Z,0.30
2022-10-23T02:54:59.179Z,0.52
2022-10-23T02:58:08.144Z,2.40
2022-10-23T03:00:37.918Z,0.85
2022-10-23T03:03:13.503Z,0.75
2022-10-23T03:05:41.727Z,0.95
2022-10-23T03:08:09.689Z,0.50
2022-10-23T03:10:36.195Z,0.32
2022-10-23T03:13:02.671Z,0.50
2022-10-23T03:15:29.140Z,0.40
2022-10-23T03:17:55.603Z,0.65
2022-10-23T03:20:22.372Z,0.30
2022-10-23T03:22:48.781Z,0.65
2022-10-23T03:25:15.273Z,0.30
2022-10-23T03:27:41.700Z,0.30
2022-10-23T03:30:09.095Z,0.65
2022-10-23T03:32:35.572Z,0.70
2022-10-23T03:35:02.003Z,0.35
2022-10-23T03:37:28.422Z,0.30
2022-10-23T03:39:54.966Z,0.60
2022-10-23T03:42:21.520Z,0.75
2022-10-23T03:44:47.953Z,0.30
2022-10-23T03:47:14.412Z,2.55
2022-10-23T03:49:40.918Z,0.25
2022-10-23T03:52:08.524Z,0.40
2022-10-23T03:54:35.374Z,0.30
2022-10-23T03:57:02.292Z,0.40
2022-10-23T03:59:29.230Z,0.50
2022-10-23T04:01:55.755Z,1.38
2022-10-23T04:04:22.294Z,0.30
2022-10-23T04:06:48.756Z,0.35
2022-10-23T04:09:15.682Z,1.70
2022-10-23T04:11:42.085Z,0.85
2022-10-23T04:14:11.955Z,0.70
2022-10-23T04:16:38.516Z,0.75
2022-10-23T04:19:04.958Z,3.40
2022-10-23T04:21:31.381Z,0.40
2022-10-23T04:23:57.829Z,0.77
2022-10-23T04:26:24.293Z,0.30
2022-10-23T04:28:50.664Z,0.57
2022-10-23T04:31:17.360Z,3.15
2022-10-23T04:33:43.902Z,0.20
2022-10-23T04:36:10.495Z,0.50
2022-10-23T04:38:36.916Z,0.20
2022-10-23T04:41:03.733Z,0.80
2022-10-23T04:43:30.173Z,0.73
2022-10-23T04:45:56.543Z,0.43
2022-10-23T04:48:25.556Z,0.60
2022-10-23T04:50:59.705Z,1.90
2022-10-23T04:53:27.270Z,1.67
2022-10-23T04:55:56.921Z,5.18
2022-10-23T05:00:50.500Z,0.70
2022-10-23T05:03:18.246Z,0.63
2022-10-23T05:05:45.606Z,0.40
2022-10-23T05:08:15.572Z,2.13
2022-10-23T05:10:44.679Z,0.47
2022-10-23T05:13:11.122Z,0.50
2022-10-23T05:15:37.611Z,0.82
2022-10-23T05:18:28.382Z,5.85
2022-10-23T05:21:01.223Z,3.42
2022-10-23T05:23:30.561Z,0.50
2022-10-23T05:25:57.006Z,1.35
2022-10-23T05:28:23.419Z,1.05
2022-10-23T05:30:50.297Z,0.63
2022-10-23T05:33:16.740Z,7.03
2022-10-23T05:35:44.606Z,1.15
2022-10-23T05:38:12.346Z,0.52
2022-10-23T05:43:10.170Z,4.65
2022-10-23T05:45:36.615Z,0.88
2022-10-23T05:48:11.079Z,0.80
2022-10-23T05:50:48.821Z,0.68
2022-10-23T05:53:15.247Z,3.72
2022-10-23T05:55:41.811Z,4.80
2022-10-23T05:58:08.237Z,1.58
2022-10-23T06:00:34.679Z,0.80
2022-10-23T06:03:02.110Z,2.72
2022-10-23T06:05:28.679Z,2.22
2022-10-23T06:08:01.361Z,1.20
2022-10-23T06:10:28.166Z,0.93
2022-10-23T06:12:54.587Z,0.73
2022-10-23T06:15:21.021Z,1.40
2022-10-23T06:17:47.404Z,1.58
2022-10-23T06:20:13.912Z,1.02
2022-10-23T06:22:40.583Z,1.73
2022-10-23T06:25:07.982Z,2.15
2022-10-23T06:27:34.411Z,2.65
2022-10-23T06:30:00.895Z,2.08
2022-10-23T06:32:30.926Z,1.77
2022-10-23T06:34:57.358Z,0.70
2022-10-23T06:37:23.749Z,2.60
2022-10-23T06:39:50.219Z,1.70
2022-10-23T06:42:16.749Z,0.80
2022-10-23T06:44:43.169Z,1.40
2022-10-23T06:47:14.334Z,0.57
2022-10-23T06:49:40.880Z,0.73
2022-10-23T06:52:14.297Z,1.17
2022-10-23T06:54:49.647Z,0.70
2022-10-23T06:57:16.065Z,1.10
2022-10-23T06:59:42.492Z,0.75
2022-10-23T07:02:09.475Z,2.22
2022-10-23T07:04:35.977Z,0.60
2022-10-23T07:07:02.359Z,0.50
2022-10-23T07:09:28.994Z,0.40
2022-10-23T07:11:55.422Z,4.22
2022-10-23T07:14:21.827Z,0.45
2022-10-23T07:16:48.209Z,0.47
2022-10-23T07:19:14.669Z,0.63
2022-10-23T07:21:41.090Z,0.50
2022-10-23T07:24:07.740Z,0.85
2022-10-23T07:26:34.133Z,3.47
2022-10-23T07:29:00.578Z,0.88
2022-10-23T07:31:28.429Z,1.45
2022-10-23T07:33:55.113Z,1.00
2022-10-23T07:36:21.756Z,0.57
2022-10-23T07:38:48.131Z,1.05
2022-10-23T07:41:15.441Z,0.70
2022-10-23T07:43:41.891Z,5.10
2022-10-23T07:46:09.845Z,3.65
2022-10-23T07:48:37.254Z,2.95
2022-10-23T07:51:11.435Z,4.03
2022-10-23T07:53:38.989Z,11.02
2022-10-23T07:56:21.327Z,0.90
2022-10-23T07:58:47.797Z,4.35
2022-10-23T08:01:21.031Z,2.47
2022-10-23T08:03:47.578Z,0.30
2022-10-23T08:06:14.342Z,0.50
2022-10-23T08:08:40.837Z,0.85
2022-10-23T08:11:07.689Z,0.55
2022-10-23T08:13:34.163Z,3.30
2022-10-23T08:16:00.639Z,0.30
2022-10-23T08:18:27.053Z,0.25
2022-10-23T08:20:53.572Z,1.42
2022-10-23T08:23:20.233Z,3.40
2022-10-23T08:25:47.161Z,2.33
2022-10-23T08:28:13.641Z,2.50
2022-10-23T08:30:40.140Z,0.25
2022-10-23T08:33:07.080Z,0.50
2022-10-23T08:35:37.845Z,1.45
2022-10-23T08:38:05.548Z,0.40
2022-10-23T08:40:32.512Z,0.60
2022-10-23T08:43:19.124Z,1.40
2022-10-23T08:45:55.242Z,0.98
2022-10-23T08:48:30.491Z,1.65
2022-10-23T08:51:05.679Z,0.40
2022-10-23T08:53:56.137Z,0.20
2022-10-23T08:56:37.384Z,5.15
2022-10-23T08:59:22.609Z,0.45
2022-10-23T09:02:02.364Z,0.20
2022-10-23T09:04:29.396Z,0.20
2022-10-23T09:07:29.547Z,2.38
2022-10-23T09:10:08.023Z,0.70
2022-10-23T09:12:34.449Z,2.47
2022-10-23T09:15:18.483Z,0.52
2022-10-23T09:17:47.133Z,0.60
2022-10-23T09:20:18.673Z,1.60
2022-10-23T09:22:46.660Z,0.70
2022-10-23T09:25:29.408Z,0.30
2022-10-23T09:28:01.472Z,0.20
2022-10-23T09:30:40.585Z,0.57
2022-10-23T09:33:18.217Z,0.65
2022-10-23T09:36:01.342Z,1.65
2022-10-23T09:38:30.861Z,1.25
2022-10-23T09:41:06.061Z,1.00
2022-10-23T09:43:32.523Z,0.30
2022-10-23T09:46:02.709Z,2.78
2022-10-23T09:48:29.651Z,0.35
2022-10-23T09:50:58.241Z,0.50
2022-10-23T09:53:31.604Z,7.45
2022-10-23T09:56:02.755Z,1.17
2022-10-23T09:58:36.240Z,2.33
2022-10-23T10:01:04.328Z,0.85
2022-10-23T10:03:30.941Z,1.50
2022-10-23T10:06:00.799Z,0.30
2022-10-23T10:08:44.483Z,0.65
2022-10-23T10:11:17.990Z,1.25
2022-10-23T10:14:18.116Z,0.45
2022-10-23T10:16:51.820Z,0.38
2022-10-23T10:19:48.619Z,0.75
2022-10-23T10:22:42.620Z,0.20
2022-10-23T10:25:19.806Z,1.55
2022-10-23T10:28:05.828Z,0.28
2022-10-23T10:30:52.339Z,0.45
2022-10-23T10:33:31.038Z,0.20
2022-10-23T10:36:12.860Z,0.45
2022-10-23T10:38:46.385Z,1.75
2022-10-23T10:41:21.745Z,0.38
2022-10-23T10:44:12.791Z,0.60
2022-10-23T10:46:56.310Z,0.38
2022-10-23T10:49:45.850Z,0.20
2022-10-23T10:52:20.587Z,0.10
2022-10-23T10:54:53.077Z,0.82
2022-10-23T10:57:37.369Z,0.47
2022-10-23T11:00:13.663Z,0.52
2022-10-23T11:02:47.757Z,0.20
2022-10-23T11:05:37.235Z,0.50
2022-10-23T11:10:55.559Z,0.73
2022-10-23T11:13:35.771Z,0.40
2022-10-23T11:16:09.599Z,1.25
2022-10-23T11:18:37.212Z,0.70
2022-10-23T11:21:30.130Z,0.40
2022-10-23T11:24:31.651Z,1.48
2022-10-23T11:27:30.180Z,0.45
2022-10-23T11:30:17.916Z,0.73
2022-10-23T11:32:44.280Z,1.55
2022-10-23T11:35:30.699Z,0.25
2022-10-23T11:38:23.545Z,0.55
2022-10-23T11:40:54.812Z,0.55
2022-10-23T11:43:56.932Z,0.85
2022-10-23T11:46:23.304Z,0.10
2022-10-23T11:48:51.079Z,0.50
2022-10-23T11:51:32.981Z,0.90
2022-10-23T11:54:07.868Z,0.38
2022-10-23T11:56:34.505Z,0.32
2022-10-23T11:59:21.602Z,0.30
2022-10-23T12:01:51.242Z,0.52
2022-10-23T12:04:28.013Z,0.43
2022-10-23T12:07:02.487Z,0.68
2022-10-23T12:09:51.948Z,0.90
2022-10-23T12:12:28.229Z,1.58
2022-10-23T12:15:08.980Z,1.75
2022-10-23T12:17:37.969Z,1.30
2022-10-23T12:20:21.354Z,0.30
2022-10-23T12:22:47.851Z,1.90
2022-10-23T12:25:31.695Z,0.93
2022-10-23T12:28:05.603Z,2.90
2022-10-23T12:30:50.310Z,0.85
2022-10-23T12:33:29.367Z,0.73
2022-10-23T12:36:15.425Z,0.77
2022-10-23T12:38:46.705Z,1.10
2022-10-23T12:41:34.707Z,2.03
2022-10-23T12:44:03.608Z,0.85
2022-10-23T12:46:36.767Z,0.73
2022-10-23T12:49:12.720Z,0.57
2022-10-23T12:51:39.201Z,1.77
2022-10-23T12:54:15.928Z,1.80
2022-10-23T12:56:44.163Z,1.20
2022-10-23T12:59:16.438Z,1.45
2022-10-23T13:01:43.554Z,1.75
2022-10-23T13:04:10.336Z,0.57
2022-10-23T13:06:39.289Z,1.00
2022-10-23T13:09:15.220Z,1.08
2022-10-23T13:11:42.517Z,3.33
2022-10-23T13:14:13.638Z,1.13
2022-10-23T13:16:40.141Z,2.00
2022-10-23T13:19:06.611Z,1.88
2022-10-23T13:21:33.127Z,1.40
2022-10-23T13:23:59.571Z,0.55
2022-10-23T13:26:33.592Z,2.85
2022-10-23T13:29:08.713Z,1.75
2022-10-23T13:31:36.515Z,2.15
2022-10-23T13:34:05.119Z,2.58
2022-10-23T13:36:36.027Z,0.65
2022-10-23T13:39:23.958Z,1.40
2022-10-23T13:41:50.400Z,1.48
2022-10-23T13:44:19.968Z,0.32
2022-10-23T13:46:48.289Z,2.22
2022-10-23T13:49:15.702Z,2.17
2022-10-23T13:51:47.397Z,1.35
2022-10-23T13:54:17.122Z,4.43
2022-10-23T13:56:43.690Z,2.58
2022-10-23T13:59:11.457Z,1.17
2022-10-23T14:01:38.571Z,2.80
2022-10-23T14:04:05.637Z,0.40
2022-10-23T14:06:32.682Z,1.63
2022-10-23T14:08:59.237Z,0.93
2022-10-23T14:11:26.071Z,2.38
2022-10-23T14:13:52.748Z,2.05
2022-10-23T14:16:21.343Z,2.67
2022-10-23T14:18:47.932Z,1.02
2022-10-23T14:21:17.459Z,2.63
2022-10-23T14:23:43.874Z,2.83
2022-10-23T14:26:12.880Z,4.32
2022-10-23T14:28:39.730Z,2.35
2022-10-23T14:31:09.125Z,3.13
2022-10-23T14:36:03.286Z,2.45
2022-10-23T14:38:30.039Z,1.77
2022-10-23T14:40:56.456Z,5.40
2022-10-23T14:43:23.935Z,3.25
2022-10-23T14:45:50.429Z,2.85
2022-10-23T14:48:17.631Z,0.75
2022-10-23T14:50:49.266Z,5.65
2022-10-23T14:53:16.213Z,4.43
2022-10-23T14:55:42.819Z,5.05
2022-10-23T14:58:09.728Z,1.92
2022-10-23T15:00:36.173Z,2.92
2022-10-23T15:03:02.601Z,3.75
2022-10-23T15:05:29.095Z,1.65
2022-10-23T15:07:56.216Z,8.02
2022-10-23T15:10:22.670Z,4.03
2022-10-23T15:12:49.219Z,7.05
2022-10-23T15:15:15.671Z,6.80
2022-10-23T15:17:42.357Z,1.65
2022-10-23T15:20:09.326Z,3.25
2022-10-23T15:22:35.838Z,3.58
2022-10-23T15:25:02.353Z,1.80
2022-10-23T15:27:28.901Z,4.18
2022-10-23T15:29:55.381Z,5.18
2022-10-23T15:32:21.755Z,2.05
2022-10-23T15:34:49.697Z,3.70
2022-10-23T15:37:16.395Z,2.35
2022-10-23T15:39:43.092Z,4.30
2022-10-23T15:42:09.914Z,2.67
2022-10-23T15:44:36.542Z,3.13
2022-10-23T15:47:03.028Z,4.25
2022-10-23T15:49:29.956Z,3.20
2022-10-23T15:51:57.287Z,2.50
2022-10-23T15:54:24.616Z,2.50
2022-10-23T15:56:53.905Z,4.63
2022-10-23T15:59:23.636Z,1.45
2022-10-23T16:01:50.934Z,8.73
2022-10-23T16:04:18.173Z,9.25
2022-10-23T16:06:44.978Z,7.82
2022-10-23T16:09:12.124Z,2.67
2022-10-23T16:11:39.678Z,12.13
2022-10-23T16:14:06.881Z,10.50
2022-10-23T16:16:34.320Z,9.35
2022-10-23T16:19:02.722Z,6.30
2022-10-23T16:21:35.344Z,11.55
2022-10-23T16:24:03.666Z,6.90
2022-10-23T16:26:30.510Z,2.45
2022-10-23T16:29:00.344Z,9.07
2022-10-23T16:31:27.781Z,11.43
2022-10-23T16:33:54.638Z,5.63
2022-10-23T16:36:21.244Z,1.85
2022-10-23T16:38:47.651Z,3.50
2022-10-23T16:41:14.162Z,2.70
2022-10-23T16:43:40.610Z,1.70
2022-10-23T16:46:12.418Z,5.35
2022-10-23T16:48:39.921Z,1.67
2022-10-23T16:51:15.168Z,2.72
2022-10-23T16:53:43.255Z,1.98
2022-10-23T16:56:11.837Z,6.28
2022-10-23T16:58:40.842Z,3.22
2022-10-23T17:01:13.696Z,5.55
2022-10-23T17:03:42.928Z,3.40
2022-10-23T17:06:12.080Z,4.78
2022-10-23T17:08:39.649Z,9.57
2022-10-23T17:11:18.527Z,9.38
2022-10-23T17:13:47.620Z,6.60
2022-10-23T17:16:19.931Z,5.75
2022-10-23T17:18:46.833Z,2.58
2022-10-23T17:21:15.075Z,5.75
2022-10-23T17:23:42.703Z,2.90
2022-10-23T17:26:11.484Z,8.85
2022-10-23T17:28:40.494Z,12.27
2022-10-23T17:31:17.916Z,3.60
2022-10-23T17:33:45.172Z,7.22
2022-10-23T17:36:13.534Z,4.22
2022-10-23T17:38:43.387Z,10.65
2022-10-23T17:41:11.540Z,9.90
2022-10-23T17:43:38.239Z,12.65
2022-10-23T17:46:06.360Z,3.72
2022-10-23T17:48:32.800Z,4.57
2022-10-23T17:51:05.275Z,6.57
2022-10-23T17:53:32.269Z,5.85
2022-10-23T17:56:02.223Z,10.60
2022-10-23T17:58:28.887Z,15.13
2022-10-23T18:00:55.399Z,10.80
2022-10-23T18:03:21.903Z,7.25
2022-10-23T18:05:48.317Z,4.25
2022-10-23T18:08:14.812Z,7.25
2022-10-23T18:10:41.236Z,5.47
2022-10-23T18:13:07.647Z,8.75
2022-10-23T18:15:35.777Z,10.10
2022-10-23T18:18:07.715Z,11.45
2022-10-23T18:20:39.855Z,9.13
2022-10-23T18:23:07.119Z,6.03
2022-10-23T18:25:34.722Z,8.80
2022-10-23T18:28:02.532Z,13.07
2022-10-23T18:30:29.402Z,7.68
2022-10-23T18:32:58.051Z,13.93
2022-10-23T18:35:25.189Z,10.55
2022-10-23T18:37:51.772Z,6.93
2022-10-23T18:40:18.588Z,9.70
2022-10-23T18:42:45.313Z,10.77
2022-10-23T18:45:13.506Z,6.93
2022-10-23T18:47:40.000Z,7.82
2022-10-23T18:50:07.057Z,16.02
2022-10-23T18:52:33.455Z,10.77
2022-10-23T18:55:00.274Z,14.15
2022-10-23T18:57:26.706Z,11.82
2022-10-23T18:59:56.369Z,9.35
2022-10-23T19:02:22.937Z,8.95
2022-10-23T19:04:49.451Z,7.78
2022-10-23T19:07:16.288Z,9.13
2022-10-23T19:09:42.790Z,3.60
2022-10-23T19:12:10.378Z,4.47
2022-10-23T19:14:36.912Z,2.92
2022-10-23T19:17:08.183Z,2.70
2022-10-23T19:19:42.153Z,14.20
2022-10-23T19:22:11.278Z,10.00
2022-10-23T19:24:51.028Z,10.50
2022-10-23T19:27:19.293Z,3.45
2022-10-23T19:29:47.979Z,8.02
2022-10-23T19:32:14.900Z,9.02
2022-10-23T19:34:41.432Z,6.78
2022-10-23T19:37:07.994Z,7.40
2022-10-23T19:39:34.509Z,10.23
2022-10-23T19:42:00.979Z,9.02
2022-10-23T19:44:28.535Z,5.25
2022-10-23T19:46:54.999Z,12.25
2022-10-23T19:49:23.739Z,9.65
2022-10-23T19:51:51.499Z,10.88
2022-10-23T19:54:20.267Z,2.55
2022-10-23T19:56:47.535Z,11.18
2022-10-23T19:59:14.581Z,5.80
2022-10-23T20:01:45.041Z,7.35
2022-10-23T20:04:15.516Z,8.85
2022-10-23T20:06:41.981Z,7.43
2022-10-23T20:09:09.809Z,10.80
2022-10-23T20:11:38.758Z,7.22
2022-10-23T20:14:05.265Z,2.08
2022-10-23T20:16:34.920Z,5.95
2022-10-23T20:19:04.238Z,3.55
2022-10-23T20:21:30.706Z,8.30
2022-10-23T20:23:58.622Z,9.98
2022-10-23T20:26:25.913Z,2.83
2022-10-23T20:28:54.876Z,3.33
2022-10-23T20:31:23.504Z,11.02
2022-10-23T20:33:50.814Z,8.35
2022-10-23T20:36:29.574Z,6.63
2022-10-23T20:38:57.639Z,4.15
2022-10-23T20:41:26.973Z,9.93
2022-10-23T20:43:55.430Z,6.80
2022-10-23T20:46:22.882Z,2.65
2022-10-23T20:48:49.870Z,1.95
2022-10-23T20:51:19.363Z,3.22
2022-10-23T20:56:14.354Z,5.57
2022-10-23T20:58:40.844Z,4.43
2022-10-23T21:01:09.938Z,2.55
2022-10-23T21:03:37.404Z,2.17
2022-10-23T21:06:08.857Z,9.48
2022-10-23T21:08:35.914Z,11.20
2022-10-23T21:11:02.366Z,5.07
2022-10-23T21:13:29.041Z,1.63
2022-10-23T21:15:56.135Z,2.75
2022-10-23T21:18:34.061Z,11.45
2022-10-23T21:21:11.735Z,3.20
2022-10-23T21:23:38.395Z,1.95
2022-10-23T21:26:07.498Z,4.10
2022-10-23T21:28:34.710Z,9.05
2022-10-23T21:31:06.401Z,11.65
2022-10-23T21:33:33.822Z,13.50
2022-10-23T21:36:11.843Z,2.33
2022-10-23T21:38:39.786Z,4.43
2022-10-23T21:41:11.540Z,4.85
2022-10-23T21:43:38.072Z,5.68
2022-10-23T21:46:05.893Z,2.65
2022-10-23T21:48:33.175Z,2.13
2022-10-23T21:51:00.235Z,2.97
2022-10-23T21:53:27.713Z,3.13
2022-10-23T21:55:56.143Z,7.90
2022-10-23T21:58:22.547Z,11.20
2022-10-23T22:00:48.980Z,9.50
2022-10-23T22:03:15.420Z,10.82
2022-10-23T22:05:41.831Z,4.00
2022-10-23T22:08:08.276Z,2.53
2022-10-23T22:10:35.149Z,2.50
2022-10-23T22:13:01.528Z,2.58
2022-10-23T22:15:28.023Z,3.60
2022-10-23T22:17:54.484Z,9.90
2022-10-23T22:20:21.162Z,8.10
2022-10-23T22:22:47.629Z,11.38
2022-10-23T22:25:14.055Z,12.40
2022-10-23T22:27:40.442Z,8.85
2022-10-23T22:30:07.271Z,10.38
2022-10-23T22:32:35.464Z,12.15
2022-10-23T22:35:01.843Z,4.65
2022-10-23T22:37:28.284Z,7.60
2022-10-23T22:39:54.754Z,14.00
2022-10-23T22:42:21.136Z,9.25
2022-10-23T22:44:47.587Z,9.55
2022-10-23T22:47:13.999Z,9.18
2022-10-23T22:49:40.438Z,10.57
2022-10-23T22:52:06.865Z,15.45
2022-10-23T22:54:33.319Z,10.10
2022-10-23T22:56:59.768Z,18.23
2022-10-23T22:59:26.441Z,10.27
2022-10-23T23:01:52.906Z,8.55
2022-10-23T23:04:37.305Z,14.30
2022-10-23T23:07:06.728Z,9.15
2022-10-23T23:09:36.288Z,9.75
2022-10-23T23:12:02.684Z,8.60
2022-10-23T23:14:29.126Z,10.93
2022-10-23T23:16:55.580Z,8.43
2022-10-23T23:19:22.943Z,3.22
2022-10-23T23:21:49.631Z,17.35
2022-10-23T23:24:16.025Z,13.77
2022-10-23T23:26:42.467Z,9.93
2022-10-23T23:29:08.893Z,2.58
2022-10-23T23:31:35.352Z,3.65
2022-10-23T23:34:01.886Z,12.73
2022-10-23T23:36:28.920Z,7.65
2022-10-23T23:38:57.246Z,10.75
2022-10-23T23:41:25.302Z,11.43
2022-10-23T23:43:54.367Z,4.75
2022-10-23T23:46:20.928Z,10.98
2022-10-23T23:48:49.290Z,3.97
2022-10-23T23:51:18.428Z,4.30
2022-10-23T23:53:44.909Z,2.80
2022-10-23T23:56:11.368Z,3.38
2022-10-23T23:58:37.881Z,6.53
